createdAt,value
2018-02-04T00:01:43.828Z,75.40
2018-02-04T00:04:10.598Z,75.40
2018-02-04T00:06:36.820Z,75.50
2018-02-04T00:09:03.299Z,75.40
2018-02-04T00:11:30.311Z,75.50
2018-02-04T00:13:56.659Z,75.50
2018-02-04T00:16:22.891Z,75.40
2018-02-04T00:18:49.989Z,75.30
2018-02-04T00:21:17.058Z,75.20
2018-02-04T00:23:43.252Z,75.20
2018-02-04T00:26:10.071Z,75.70
2018-02-04T00:28:37.018Z,76.30
2018-02-04T00:31:04.085Z,76.10
2018-02-04T00:33:30.493Z,76.10
2018-02-04T00:35:57.479Z,76.00
2018-02-04T00:38:23.998Z,76.00
2018-02-04T00:40:51.483Z,75.60
2018-02-04T00:43:19.060Z,75.60
2018-02-04T00:45:45.878Z,75.60
2018-02-04T00:48:12.113Z,76.20
2018-02-04T00:50:38.989Z,76.90
2018-02-04T00:53:05.858Z,76.70
2018-02-04T00:55:33.022Z,76.60
2018-02-04T00:57:59.649Z,76.80
2018-02-04T01:00:26.695Z,75.80
2018-02-04T01:02:54.248Z,75.80
2018-02-04T01:05:21.814Z,75.60
2018-02-04T01:07:48.050Z,75.60
2018-02-04T01:10:17.958Z,75.30
2018-02-04T01:12:44.257Z,75.30
2018-02-04T01:15:10.841Z,75.70
2018-02-04T01:17:37.254Z,75.40
2018-02-04T01:20:03.555Z,75.30
2018-02-04T01:22:30.407Z,75.20
2018-02-04T01:24:58.148Z,75.10
2018-02-04T01:27:25.235Z,75.40
2018-02-04T01:29:51.581Z,75.30
2018-02-04T01:32:18.327Z,75.60
2018-02-04T01:34:44.853Z,75.60
2018-02-04T01:37:11.921Z,75.10
2018-02-04T01:39:38.883Z,75.10
2018-02-04T01:42:06.358Z,74.90
2018-02-04T01:44:33.337Z,75.00
2018-02-04T01:47:00.128Z,74.90
2018-02-04T01:49:26.335Z,74.90
2018-02-04T01:51:52.541Z,75.00
2018-02-04T01:54:19.400Z,74.90
2018-02-04T01:56:45.624Z,75.10
2018-02-04T01:59:11.826Z,75.30
2018-02-04T02:01:38.022Z,75.50
2018-02-04T02:04:05.591Z,75.30
2018-02-04T02:06:33.001Z,75.30
2018-02-04T02:09:00.017Z,75.30
2018-02-04T02:11:26.322Z,75.30
2018-02-04T02:13:53.242Z,75.40
2018-02-04T02:16:20.013Z,75.40
2018-02-04T02:18:46.906Z,75.20
2018-02-04T02:21:13.146Z,75.50
2018-02-04T02:23:39.370Z,75.50
2018-02-04T02:26:05.615Z,75.60
2018-02-04T02:28:32.814Z,75.50
2018-02-04T02:31:00.044Z,75.20
2018-02-04T02:33:27.142Z,74.60
2018-02-04T02:35:53.946Z,74.60
2018-02-04T02:38:20.165Z,74.70
2018-02-04T02:40:47.127Z,75.30
2018-02-04T02:43:13.325Z,75.30
2018-02-04T02:45:41.261Z,75.30
2018-02-04T02:48:07.670Z,75.20
2018-02-04T02:50:34.771Z,75.20
2018-02-04T02:53:01.750Z,75.30
2018-02-04T02:55:28.635Z,75.30
2018-02-04T02:57:55.066Z,75.10
2018-02-04T03:00:22.031Z,75.60
2018-02-04T03:02:48.334Z,75.60
2018-02-04T03:05:14.534Z,75.40
2018-02-04T03:07:40.766Z,75.20
2018-02-04T03:10:07.544Z,75.00
2018-02-04T03:12:34.431Z,75.00
2018-02-04T03:15:01.286Z,75.20
2018-02-04T03:17:27.939Z,75.40
2018-02-04T03:19:54.255Z,75.40
2018-02-04T03:22:21.304Z,75.30
2018-02-04T03:24:49.195Z,75.70
2018-02-04T03:27:16.417Z,75.60
2018-02-04T03:29:42.655Z,75.50
2018-02-04T03:32:10.124Z,75.60
2018-02-04T03:34:37.878Z,75.20
2018-02-04T03:37:05.991Z,75.10
2018-02-04T03:39:32.892Z,75.10
2018-02-04T03:42:00.306Z,74.90
2018-02-04T03:44:27.384Z,75.20
2018-02-04T03:46:53.582Z,75.20
2018-02-04T03:49:20.546Z,75.80
2018-02-04T03:51:46.742Z,75.70
2018-02-04T03:54:12.972Z,75.90
2018-02-04T03:56:39.793Z,75.60
2018-02-04T03:59:06.826Z,76.50
2018-02-04T04:01:33.497Z,76.40
2018-02-04T04:04:00.501Z,77.20
2018-02-04T04:06:26.743Z,77.20
2018-02-04T04:08:52.951Z,77.60
2018-02-04T04:11:19.164Z,77.90
2018-02-04T04:13:45.920Z,77.40
2018-02-04T04:16:12.734Z,77.20
2018-02-04T04:18:39.354Z,76.80
2018-02-04T04:21:06.409Z,76.50
2018-02-04T04:23:34.486Z,76.30
2018-02-04T04:26:01.434Z,76.20
2018-02-04T04:28:27.690Z,76.00
2018-02-04T04:30:54.769Z,76.00
2018-02-04T04:33:20.974Z,75.50
2018-02-04T04:35:47.281Z,75.00
2018-02-04T04:38:13.632Z,74.80
2018-02-04T04:40:40.892Z,74.70
2018-02-04T04:43:08.504Z,74.80
2018-02-04T04:45:36.069Z,75.00
2018-02-04T04:48:02.394Z,75.00
2018-02-04T04:50:29.438Z,75.10
2018-02-04T04:52:56.387Z,75.00
2018-02-04T04:55:23.337Z,75.20
2018-02-04T04:57:50.947Z,75.20
2018-02-04T05:00:19.065Z,75.50
2018-02-04T05:02:46.030Z,75.40
2018-02-04T05:05:12.463Z,75.30
2018-02-04T05:07:39.671Z,75.20
2018-02-04T05:10:06.632Z,75.70
2018-02-04T05:12:33.958Z,75.90
2018-02-04T05:15:01.916Z,76.00
2018-02-04T05:17:29.058Z,76.00
2018-02-04T05:19:55.390Z,76.20
2018-02-04T05:22:21.634Z,76.20
2018-02-04T05:24:48.796Z,76.00
2018-02-04T05:27:16.776Z,75.90
2018-02-04T05:29:44.243Z,75.60
2018-02-04T05:32:11.337Z,75.70
2018-02-04T05:34:38.417Z,75.60
2018-02-04T05:37:05.644Z,75.60
2018-02-04T05:39:32.057Z,75.60
2018-02-04T05:41:59.177Z,75.80
2018-02-04T05:44:25.370Z,75.80
2018-02-04T05:46:52.365Z,75.40
2018-02-04T05:49:18.691Z,75.40
2018-02-04T05:51:44.862Z,75.30
2018-02-04T05:54:11.122Z,75.30
2018-02-04T05:56:39.153Z,75.40
2018-02-04T05:59:05.869Z,75.40
2018-02-04T06:01:32.099Z,75.30
2018-02-04T06:03:58.454Z,75.30
2018-02-04T06:06:24.995Z,75.40
2018-02-04T06:08:51.429Z,75.50
2018-02-04T06:11:18.180Z,75.30
2018-02-04T06:13:45.113Z,75.10
2018-02-04T06:16:12.156Z,75.20
2018-02-04T06:18:38.441Z,75.20
2018-02-04T06:21:04.719Z,75.40
2018-02-04T06:23:30.929Z,75.40
2018-02-04T06:25:57.221Z,75.30
2018-02-04T06:28:23.836Z,75.40
2018-02-04T06:30:50.829Z,75.30
2018-02-04T06:33:17.057Z,75.30
2018-02-04T06:35:43.244Z,75.40
2018-02-04T06:38:10.067Z,75.40
2018-02-04T06:40:36.430Z,75.50
2018-02-04T06:43:03.155Z,75.60
2018-02-04T06:45:30.219Z,75.70
2018-02-04T06:47:56.446Z,75.00
2018-02-04T06:50:22.752Z,74.80
2018-02-04T06:52:50.266Z,74.70
2018-02-04T06:55:17.587Z,74.90
2018-02-04T06:57:44.654Z,74.80
2018-02-04T07:00:11.729Z,75.00
2018-02-04T07:02:37.971Z,75.00
2018-02-04T07:05:05.190Z,75.00
2018-02-04T07:07:32.353Z,74.90
2018-02-04T07:09:59.925Z,74.10
2018-02-04T07:12:26.903Z,73.90
2018-02-04T07:14:54.399Z,73.10
2018-02-04T07:17:20.607Z,73.10
2018-02-04T07:29:31.905Z,73.00
2018-02-04T07:31:58.144Z,72.10
2018-02-04T07:34:25.780Z,79.30
2018-02-04T07:36:52.573Z,79.40
2018-02-04T07:39:18.819Z,83.70
2018-02-04T07:41:45.981Z,81.20
2018-02-04T07:44:13.229Z,79.00
2018-02-04T07:46:40.838Z,78.40
2018-02-04T07:49:07.801Z,75.80
2018-02-04T07:51:34.674Z,75.80
2018-02-04T07:54:01.128Z,74.10
2018-02-04T07:56:28.196Z,73.40
2018-02-04T07:58:55.443Z,73.40
2018-02-04T08:01:23.915Z,72.70
2018-02-04T08:03:51.255Z,72.70
2018-02-04T08:06:17.450Z,73.30
2018-02-04T08:08:44.322Z,73.20
2018-02-04T08:11:10.586Z,73.30
2018-02-04T08:13:38.525Z,73.00
2018-02-04T08:16:05.200Z,73.00
2018-02-04T08:18:32.610Z,73.40
2018-02-04T08:20:59.612Z,73.20
2018-02-04T08:23:25.829Z,73.20
2018-02-04T08:25:52.871Z,73.70
2018-02-04T08:28:20.805Z,73.80
2018-02-04T08:30:47.473Z,73.70
2018-02-04T08:33:14.446Z,72.20
2018-02-04T08:35:40.773Z,72.10
2018-02-04T08:38:07.414Z,71.20
2018-02-04T08:40:35.161Z,71.20
2018-02-04T08:43:02.204Z,72.20
2018-02-04T08:45:33.270Z,72.10
2018-02-04T08:48:00.338Z,72.10
2018-02-04T08:50:26.812Z,71.40
2018-02-04T08:52:53.784Z,70.60
2018-02-04T08:55:21.248Z,70.60
2018-02-04T08:57:48.526Z,71.20
2018-02-04T09:00:14.864Z,71.50
2018-02-04T09:02:41.617Z,71.90
2018-02-04T09:05:08.375Z,71.80
2018-02-04T09:07:34.830Z,72.00
2018-02-04T09:10:02.106Z,70.40
2018-02-04T09:12:28.324Z,70.40
2018-02-04T09:14:55.158Z,70.00
2018-02-04T09:17:21.563Z,69.60
2018-02-04T09:19:49.455Z,69.20
2018-02-04T09:22:15.672Z,69.10
2018-02-04T09:24:42.731Z,69.70
2018-02-04T09:27:09.106Z,69.70
2018-02-04T09:29:36.493Z,67.60
2018-02-04T09:32:03.509Z,67.40
2018-02-04T09:34:29.734Z,67.40
2018-02-04T09:36:56.821Z,67.00
2018-02-04T09:39:23.875Z,69.00
2018-02-04T09:41:51.155Z,68.00
2018-02-04T09:44:17.626Z,68.00
2018-02-04T09:46:45.185Z,68.20
2018-02-04T09:49:12.187Z,66.90
2018-02-04T09:51:38.447Z,66.90
2018-02-04T09:54:05.096Z,66.10
2018-02-04T09:56:32.206Z,66.00
2018-02-04T09:58:58.428Z,66.00
2018-02-04T10:01:25.765Z,67.80
2018-02-04T10:03:52.262Z,67.20
2018-02-04T10:06:19.316Z,66.20
2018-02-04T10:08:45.485Z,67.00
2018-02-04T10:11:11.794Z,66.70
2018-02-04T10:13:39.194Z,65.30
2018-02-04T10:16:06.614Z,66.70
2018-02-04T10:18:33.704Z,65.50
2018-02-04T10:21:01.001Z,64.50
2018-02-04T10:23:28.631Z,64.50
2018-02-04T10:25:55.936Z,63.40
2018-02-04T10:28:22.506Z,63.40
2018-02-04T10:30:49.870Z,65.10
2018-02-04T10:33:17.227Z,65.80
2018-02-04T10:35:44.536Z,65.90
2018-02-04T10:38:12.232Z,64.40
2018-02-04T10:40:38.475Z,64.30
2018-02-04T10:43:05.166Z,63.80
2018-02-04T10:45:32.209Z,64.10
2018-02-04T10:47:58.847Z,64.00
2018-02-04T10:50:25.874Z,63.50
2018-02-04T10:52:53.781Z,64.50
2018-02-04T10:55:20.894Z,64.50
2018-02-04T10:57:48.599Z,63.20
2018-02-04T11:00:15.606Z,63.20
2018-02-04T11:02:42.638Z,63.80
2018-02-04T11:05:09.179Z,63.80
2018-02-04T11:07:36.006Z,64.00
2018-02-04T11:10:03.391Z,65.00
2018-02-04T11:12:31.067Z,65.50
2018-02-04T11:14:57.908Z,65.50
2018-02-04T11:17:24.901Z,65.80
2018-02-04T11:19:52.922Z,66.30
2018-02-04T11:22:21.073Z,66.30
2018-02-04T11:24:48.254Z,66.10
2018-02-04T11:27:15.433Z,66.10
2018-02-04T11:29:42.670Z,66.40
2018-02-04T11:32:19.963Z,66.20
2018-02-04T11:34:46.893Z,66.20
2018-02-04T11:37:14.185Z,66.70
2018-02-04T11:39:41.393Z,66.90
2018-02-04T11:42:08.156Z,67.40
2018-02-04T11:44:34.661Z,68.00
2018-02-04T11:47:00.849Z,65.90
2018-02-04T11:49:28.046Z,66.50
2018-02-04T11:51:54.501Z,65.80
2018-02-04T11:54:20.875Z,65.50
2018-02-04T11:56:47.939Z,64.20
2018-02-04T11:59:14.834Z,64.20
2018-02-04T12:01:41.788Z,63.70
2018-02-04T12:04:08.168Z,63.70
2018-02-04T12:06:35.862Z,63.60
2018-02-04T12:09:02.162Z,63.60
2018-02-04T12:11:29.593Z,63.70
2018-02-04T12:13:57.267Z,62.30
2018-02-04T12:16:23.784Z,62.40
2018-02-04T12:18:51.041Z,61.80
2018-02-04T12:21:18.099Z,63.10
2018-02-04T12:23:44.334Z,63.10
2018-02-04T12:26:11.173Z,61.80
2018-02-04T12:28:37.941Z,62.30
2018-02-04T12:31:04.160Z,61.70
2018-02-04T12:33:30.443Z,62.60
2018-02-04T12:35:57.426Z,60.60
2018-02-04T12:38:23.666Z,60.60
2018-02-04T12:40:50.531Z,58.70
2018-02-04T12:43:18.030Z,58.80
2018-02-04T12:45:45.211Z,59.00
2018-02-04T12:48:12.283Z,59.70
2018-02-04T12:50:38.502Z,59.70
2018-02-04T12:53:04.726Z,58.50
2018-02-04T12:55:31.501Z,58.40
2018-02-04T12:57:57.812Z,59.30
2018-02-04T13:00:24.897Z,59.90
2018-02-04T13:02:51.945Z,59.10
2018-02-04T13:05:19.318Z,59.00
2018-02-04T13:07:46.737Z,59.00
2018-02-04T13:10:14.407Z,59.50
2018-02-04T13:12:41.431Z,59.80
2018-02-04T13:15:08.264Z,59.80
2018-02-04T13:17:34.472Z,59.30
2018-02-04T13:20:01.603Z,59.40
2018-02-04T13:22:28.333Z,59.40
2018-02-04T13:24:55.662Z,58.90
2018-02-04T13:27:22.723Z,58.00
2018-02-04T13:29:50.102Z,57.30
2018-02-04T13:32:17.422Z,57.30
2018-02-04T13:34:44.594Z,57.00
2018-02-04T13:37:11.028Z,57.00
2018-02-04T13:39:37.757Z,56.00
2018-02-04T13:42:04.794Z,56.20
2018-02-04T13:44:33.091Z,56.90
2018-02-04T13:46:59.664Z,56.90
2018-02-04T13:49:26.768Z,57.20
2018-02-04T13:51:52.980Z,57.20
2018-02-04T13:54:20.127Z,56.80
2018-02-04T13:56:47.433Z,57.10
2018-02-04T13:59:13.877Z,57.10
2018-02-04T14:01:40.738Z,56.80
2018-02-04T14:04:07.007Z,55.70
2018-02-04T14:06:33.301Z,55.40
2018-02-04T14:09:00.305Z,54.90
2018-02-04T14:11:27.618Z,54.90
2018-02-04T14:13:54.670Z,54.60
2018-02-04T14:16:21.675Z,54.50
2018-02-04T14:18:47.964Z,54.40
2018-02-04T14:21:14.328Z,55.30
2018-02-04T14:23:40.645Z,54.60
2018-02-04T14:26:07.071Z,53.80
2018-02-04T14:28:33.289Z,53.60
2018-02-04T14:31:00.116Z,53.90
2018-02-04T14:33:26.382Z,53.90
2018-02-04T14:35:52.690Z,54.50
2018-02-04T14:38:18.890Z,55.40
2018-02-04T14:40:46.810Z,55.70
2018-02-04T14:43:14.503Z,55.70
2018-02-04T14:45:41.403Z,55.20
2018-02-04T14:48:09.176Z,55.00
2018-02-04T14:50:36.519Z,54.40
2018-02-04T14:53:03.694Z,54.40
2018-02-04T14:55:30.098Z,54.40
2018-02-04T14:57:56.568Z,55.00
2018-02-04T15:00:23.749Z,55.40
2018-02-04T15:02:51.361Z,55.40
2018-02-04T15:05:19.131Z,55.70
2018-02-04T15:07:46.625Z,55.30
2018-02-04T15:10:13.591Z,55.30
2018-02-04T15:12:40.456Z,55.30
2018-02-04T15:15:06.752Z,55.30
2018-02-04T15:17:34.376Z,55.80
2018-02-04T15:20:01.543Z,56.20
2018-02-04T15:22:28.609Z,56.30
2018-02-04T15:24:55.735Z,57.20
2018-02-04T15:27:22.063Z,57.10
2018-02-04T15:29:48.335Z,57.10
2018-02-04T15:32:15.110Z,57.30
2018-02-04T15:34:42.319Z,57.00
2018-02-04T15:37:08.507Z,57.00
2018-02-04T15:39:35.352Z,57.10
2018-02-04T15:42:02.339Z,57.50
2018-02-04T15:44:28.794Z,57.50
2018-02-04T15:46:54.986Z,57.60
2018-02-04T15:49:22.015Z,57.40
2018-02-04T15:51:50.427Z,57.90
2018-02-04T15:54:16.629Z,57.80
2018-02-04T15:56:43.657Z,57.90
2018-02-04T15:59:10.417Z,57.90
2018-02-04T16:01:37.271Z,58.20
2018-02-04T16:04:04.341Z,60.00
2018-02-04T16:06:31.225Z,59.90
2018-02-04T16:08:57.565Z,60.30
2018-02-04T16:11:24.025Z,61.30
2018-02-04T16:13:50.247Z,62.50
2018-02-04T16:16:18.431Z,64.30
2018-02-04T16:18:45.530Z,65.30
2018-02-04T16:21:13.082Z,65.20
2018-02-04T16:23:40.603Z,64.90
2018-02-04T16:26:07.036Z,64.90
2018-02-04T16:28:33.744Z,64.40
2018-02-04T16:31:01.854Z,64.90
2018-02-04T16:33:28.992Z,66.20
2018-02-04T16:35:55.730Z,66.10
2018-02-04T16:38:22.023Z,65.50
2018-02-04T16:40:48.717Z,65.20
2018-02-04T16:43:16.789Z,65.00
2018-02-04T16:45:43.000Z,65.00
2018-02-04T16:48:09.214Z,64.60
2018-02-04T16:50:36.777Z,64.30
2018-02-04T16:53:04.300Z,64.50
2018-02-04T16:55:30.492Z,64.50
2018-02-04T16:57:57.359Z,64.10
2018-02-04T17:00:24.131Z,64.60
2018-02-04T17:02:52.322Z,65.00
2018-02-04T17:05:18.906Z,65.00
2018-02-04T17:07:45.985Z,64.80
2018-02-04T17:10:13.050Z,67.10
2018-02-04T17:12:39.995Z,69.00
2018-02-04T17:15:06.388Z,69.00
2018-02-04T17:17:33.067Z,69.30
2018-02-04T17:19:59.302Z,70.20
2018-02-04T17:22:26.154Z,70.20
2018-02-04T17:24:53.470Z,70.60
2018-02-04T17:27:21.223Z,69.60
2018-02-04T17:29:47.438Z,69.70
2018-02-04T17:32:13.901Z,69.40
2018-02-04T17:34:41.391Z,68.50
2018-02-04T17:37:07.597Z,68.50
2018-02-04T17:39:35.474Z,67.80
2018-02-04T17:42:02.215Z,66.80
2018-02-04T17:44:28.744Z,66.80
2018-02-04T17:46:56.503Z,67.80
2018-02-04T17:49:22.762Z,67.80
2018-02-04T17:51:49.523Z,68.50
2018-02-04T17:54:16.050Z,68.60
2018-02-04T17:56:43.778Z,68.00
2018-02-04T17:59:10.914Z,68.00
2018-02-04T18:01:38.077Z,68.40
2018-02-04T18:04:04.330Z,68.10
2018-02-04T18:06:30.881Z,68.40
2018-02-04T18:08:58.311Z,67.00
2018-02-04T18:11:24.595Z,67.00
2018-02-04T18:13:52.158Z,67.40
2018-02-04T18:16:19.663Z,67.80
2018-02-04T18:18:46.546Z,67.80
2018-02-04T18:21:12.770Z,68.20
2018-02-04T18:23:39.928Z,68.50
2018-02-04T18:26:06.145Z,68.10
2018-02-04T18:28:32.387Z,68.10
2018-02-04T18:30:59.382Z,68.40
2018-02-04T18:33:25.605Z,68.40
2018-02-04T18:35:52.490Z,68.10
2018-02-04T18:38:18.707Z,67.80
2018-02-04T18:40:45.501Z,67.90
2018-02-04T18:43:12.768Z,67.50
2018-02-04T18:45:39.009Z,67.40
2018-02-04T18:48:05.700Z,67.50
2018-02-04T18:50:33.913Z,66.90
2018-02-04T18:53:01.372Z,68.00
2018-02-04T18:55:28.700Z,68.80
2018-02-04T18:57:57.161Z,69.10
2018-02-04T19:00:25.095Z,68.60
2018-02-04T19:02:51.370Z,68.50
2018-02-04T19:05:17.713Z,68.70
2018-02-04T19:07:48.017Z,69.10
2018-02-04T19:10:14.959Z,68.30
2018-02-04T19:12:42.030Z,69.00
2018-02-04T19:15:08.783Z,69.00
2018-02-04T19:17:35.525Z,69.30
2018-02-04T19:20:02.929Z,70.30
2018-02-04T19:22:30.101Z,70.30
2018-02-04T19:24:56.269Z,70.30
2018-02-04T19:27:23.795Z,70.90
2018-02-04T19:29:51.255Z,70.70
2018-02-04T19:32:18.342Z,70.30
2018-02-04T19:34:44.597Z,70.30
2018-02-04T19:37:11.986Z,70.20
2018-02-04T19:39:38.757Z,70.50
2018-02-04T19:42:05.506Z,70.50
2018-02-04T19:44:31.702Z,70.10
2018-02-04T19:46:58.612Z,70.30
2018-02-04T19:49:25.930Z,70.00
2018-02-04T19:51:52.941Z,69.50
2018-02-04T19:54:19.264Z,69.50
2018-02-04T19:56:45.996Z,69.50
2018-02-04T19:59:12.593Z,68.80
2018-02-04T20:01:40.001Z,67.90
2018-02-04T20:04:08.015Z,67.70
2018-02-04T20:06:35.007Z,68.50
2018-02-04T20:09:01.880Z,67.80
2018-02-04T20:11:28.081Z,68.10
2018-02-04T20:13:54.990Z,67.60
2018-02-04T20:16:21.247Z,68.50
2018-02-04T20:18:48.933Z,69.40
2018-02-04T20:21:15.186Z,68.50
2018-02-04T20:23:41.395Z,68.20
2018-02-04T20:26:07.636Z,69.20
2018-02-04T20:28:33.894Z,70.00
2018-02-04T20:31:00.744Z,69.60
2018-02-04T20:33:41.029Z,70.10
2018-02-04T20:36:08.416Z,70.00
2018-02-04T20:38:34.914Z,69.90
2018-02-04T20:41:02.511Z,70.30
2018-02-04T20:43:28.770Z,70.30
2018-02-04T20:45:55.042Z,70.00
2018-02-04T20:48:21.256Z,68.90
2018-02-04T20:50:48.618Z,69.30
2018-02-04T20:53:14.811Z,70.20
2018-02-04T20:55:43.299Z,69.50
2018-02-04T20:58:11.109Z,69.50
2018-02-04T21:00:37.984Z,69.50
2018-02-04T21:03:04.507Z,70.10
2018-02-04T21:05:31.554Z,69.40
2018-02-04T21:07:58.070Z,69.30
2018-02-04T21:10:25.210Z,69.00
2018-02-04T21:12:52.289Z,68.50
2018-02-04T21:15:19.395Z,68.50
2018-02-04T21:17:45.673Z,68.40
2018-02-04T21:20:12.182Z,68.10
2018-02-04T21:22:40.035Z,68.20
2018-02-04T21:25:06.494Z,68.20
2018-02-04T21:27:33.244Z,68.50
2018-02-04T21:30:00.029Z,69.10
2018-02-04T21:32:26.706Z,68.60
2018-02-04T21:34:54.042Z,68.00
2018-02-04T21:37:21.451Z,67.60
2018-02-04T21:39:48.454Z,67.50
2018-02-04T21:42:14.712Z,67.40
2018-02-04T21:44:42.292Z,67.40
2018-02-04T21:47:10.411Z,67.60
2018-02-04T21:49:36.608Z,67.60
2018-02-04T21:52:03.911Z,68.00
2018-02-04T21:54:31.061Z,69.20
2018-02-04T21:56:58.648Z,68.30
2018-02-04T21:59:25.888Z,68.10
2018-02-04T22:01:53.323Z,68.00
2018-02-04T22:04:19.904Z,68.00
2018-02-04T22:06:46.151Z,67.70
2018-02-04T22:09:12.442Z,68.00
2018-02-04T22:11:39.440Z,69.90
2018-02-04T22:14:06.226Z,69.90
2018-02-04T22:16:34.513Z,70.70
2018-02-04T22:19:01.494Z,71.20
2018-02-04T22:21:28.791Z,71.20
2018-02-04T22:23:55.120Z,72.10
2018-02-04T22:26:21.430Z,71.40
2018-02-04T22:28:47.865Z,71.20
2018-02-04T22:31:15.046Z,70.60
2018-02-04T22:33:42.110Z,70.60
2018-02-04T22:36:09.372Z,71.50
2018-02-04T22:38:36.617Z,71.00
2018-02-04T22:41:03.738Z,71.50
2018-02-04T22:43:30.007Z,71.50
2018-02-04T22:45:56.570Z,72.10
2018-02-04T22:48:23.482Z,72.10
2018-02-04T22:50:49.924Z,72.10
2018-02-04T22:53:16.612Z,71.30
2018-02-04T22:55:43.850Z,71.70
2018-02-04T22:58:10.869Z,71.70
2018-02-04T23:00:37.170Z,71.40
2018-02-04T23:03:04.197Z,70.20
2018-02-04T23:05:31.220Z,70.10
2018-02-04T23:07:58.713Z,69.80
2018-02-04T23:10:25.707Z,69.00
2018-02-04T23:12:51.916Z,69.00
2018-02-04T23:15:18.148Z,69.70
2018-02-04T23:17:44.421Z,69.10
2018-02-04T23:20:11.821Z,69.00
2018-02-04T23:22:39.217Z,69.20
2018-02-04T23:25:05.694Z,69.20
2018-02-04T23:27:32.569Z,69.60
2018-02-04T23:29:59.023Z,70.40
2018-02-04T23:32:26.586Z,69.90
2018-02-04T23:34:52.850Z,69.90
2018-02-04T23:37:20.532Z,69.60
2018-02-04T23:39:46.743Z,69.60
2018-02-04T23:42:13.859Z,69.40
2018-02-04T23:44:40.975Z,69.40
2018-02-04T23:47:07.187Z,69.30
2018-02-04T23:49:34.050Z,69.10
2018-02-04T23:52:00.275Z,69.00
2018-02-04T23:54:27.406Z,69.10
2018-02-04T23:56:54.552Z,69.00
2018-02-04T23:59:20.940Z,69.20
